Time;durP1;ratioP1;P1;durP2;ratioP2;P2;SDS_P1;SDS_P2;PMS_P1;PMS_P2;Temp;Humidity;BMP_temperature;BMP_pressure;BME280_temperature;BME280_humidity;BME280_pressure;Samples;Min_cycle;Max_cycle;Signal;HPM_P1;HPM_P2
2023/08/22 00:02:18;;;;;;;3.15;1.30;;;;;;;25.63;63.54;100203.56;4388040;32;33656;-89
2023/08/22 00:04:46;;;;;;;1.45;1.33;;;;;;;25.80;62.56;100201.91;4400032;32;33248;-87
2023/08/22 00:07:14;;;;;;;1.20;1.15;;;;;;;25.81;62.65;100205.47;4388977;32;33546;-87
2023/08/22 00:09:43;;;;;;;2.97;2.35;;;;;;;25.76;62.64;100192.41;4396402;32;32390;-87
2023/08/22 00:12:11;;;;;;;1.73;1.62;;;;;;;25.66;63.09;100195.16;4387724;32;32517;-88
2023/08/22 00:14:39;;;;;;;8.65;1.62;;;;;;;25.50;63.73;100203.13;4393961;32;33257;-88
2023/08/22 00:17:10;;;;;;;5.65;2.42;;;;;;;25.57;63.54;100197.94;4400275;32;34091;-89
2023/08/22 00:19:39;;;;;;;1.48;1.37;;;;;;;25.52;63.44;100198.38;4399258;32;32810;-89
2023/08/22 00:22:07;;;;;;;4.43;1.52;;;;;;;25.38;63.54;100197.06;4399547;32;32519;-88
2023/08/22 00:24:35;;;;;;;1.42;1.33;;;;;;;25.48;62.96;100194.28;4400493;32;33593;-89
2023/08/22 00:27:04;;;;;;;2.92;2.03;;;;;;;25.45;63.15;100200.88;4373772;32;33080;-88
2023/08/22 00:29:31;;;;;;;1.48;1.37;;;;;;;25.44;63.24;100192.87;4375795;32;33323;-89
2023/08/22 00:31:59;;;;;;;1.65;1.20;;;;;;;25.49;63.08;100202.25;4385174;32;34137;-88
2023/08/22 00:34:27;;;;;;;5.68;1.35;;;;;;;25.50;63.14;100203.13;4369976;32;32102;-88
2023/08/22 00:36:54;;;;;;;2.22;1.95;;;;;;;25.41;63.41;100201.31;4392964;32;32261;-88
2023/08/22 00:39:24;;;;;;;1.83;1.20;;;;;;;25.34;63.78;100201.06;4401237;32;33622;-89
2023/08/22 00:41:52;;;;;;;2.05;1.42;;;;;;;25.46;63.29;100194.44;4386132;32;33604;-87
2023/08/22 00:44:20;;;;;;;2.12;2.03;;;;;;;25.49;63.09;100194.16;4372538;32;33073;-89
2023/08/22 00:46:48;;;;;;;1.92;1.77;;;;;;;25.38;63.30;100191.66;4399217;32;32379;-89
2023/08/22 00:49:16;;;;;;;3.90;2.33;;;;;;;25.33;63.40;100191.25;4399576;32;34774;-89
2023/08/22 00:51:44;;;;;;;2.65;2.45;;;;;;;25.55;62.21;100195.38;4388066;32;33485;-89
2023/08/22 00:54:13;;;;;;;1.30;1.17;;;;;;;25.19;63.58;100200.72;4385359;32;33433;-89
2023/08/22 00:56:42;;;;;;;2.33;2.12;;;;;;;25.25;63.63;100204.69;4399600;32;34507;-89
2023/08/22 00:59:10;;;;;;;1.33;1.12;;;;;;;25.11;64.20;100197.94;4374201;32;33023;-89
2023/08/22 01:01:38;;;;;;;1.90;1.77;;;;;;;25.13;64.09;100201.34;4388155;32;33549;-89
2023/08/22 01:04:06;;;;;;;2.22;2.00;;;;;;;25.08;64.31;100202.81;4406236;32;33269;-89
2023/08/22 01:06:51;;;;;;;3.87;2.53;;;;;;;25.19;63.86;100206.13;4382549;32;34387;-89
2023/08/22 01:09:29;;;;;;;8.43;2.05;;;;;;;25.28;63.49;100193.56;4386274;32;32925;-88
2023/08/22 01:12:22;;;;;;;1.85;1.48;;;;;;;25.14;63.84;100204.91;4383937;32;33026;-89
2023/08/22 01:14:55;;;;;;;2.60;1.98;;;;;;;25.13;63.60;100205.91;4378895;32;33417;-88
2023/08/22 01:17:24;;;;;;;4.60;2.15;;;;;;;25.09;63.69;100205.34;4377042;32;32738;-88
2023/08/22 01:19:58;;;;;;;1.90;1.80;;;;;;;24.96;64.40;100199.41;4385978;32;34751;-88
2023/08/22 01:22:26;;;;;;;2.50;2.30;;;;;;;24.97;64.32;100201.09;4390332;32;33200;-88
2023/08/22 01:24:54;;;;;;;1.45;1.10;;;;;;;24.99;64.51;100199.13;4388149;32;33118;-88
2023/08/22 01:27:26;;;;;;;1.12;0.98;;;;;;;25.04;64.06;100186.84;4402747;32;33737;-88
2023/08/22 01:30:07;;;;;;;1.23;1.12;;;;;;;25.05;64.04;100187.69;4378380;32;32917;-89
2023/08/22 01:32:38;;;;;;;4.95;2.62;;;;;;;24.98;64.09;100192.03;4386050;32;32784;-88
2023/08/22 01:35:09;;;;;;;1.67;1.25;;;;;;;24.91;64.40;100194.44;4394125;32;32826;-89
2023/08/22 01:37:38;;;;;;;2.50;2.05;;;;;;;24.98;64.32;100186.63;4392179;32;34449;-88
2023/08/22 01:40:08;;;;;;;3.05;1.70;;;;;;;24.87;64.51;100184.94;4405803;32;35189;-88
2023/08/22 01:42:35;;;;;;;1.05;0.95;;;;;;;24.85;64.60;100184.25;4374342;32;33000;-89
2023/08/22 01:45:03;;;;;;;1.35;1.20;;;;;;;24.85;64.61;100184.25;4402079;32;32364;-89
2023/08/22 01:47:32;;;;;;;3.08;1.58;;;;;;;24.86;64.46;100179.69;4400558;32;33350;-90
2023/08/22 01:49:59;;;;;;;2.03;1.90;;;;;;;24.81;64.55;100188.25;4387972;32;33182;-89
2023/08/22 01:52:27;;;;;;;1.33;1.23;;;;;;;24.70;64.89;100192.00;4403107;32;32299;-89
2023/08/22 01:54:55;;;;;;;3.25;2.08;;;;;;;24.62;65.15;100191.88;4397960;32;32461;-89
2023/08/22 01:57:24;;;;;;;1.33;1.25;;;;;;;24.74;64.87;100193.41;4390169;32;35187;-90
2023/08/22 01:59:52;;;;;;;5.37;1.95;;;;;;;24.65;65.20;100191.59;4392525;32;33244;-90
2023/08/22 02:02:21;;;;;;;1.40;1.30;;;;;;;24.67;65.11;100194.97;4383698;32;33712;-90
2023/08/22 02:04:49;;;;;;;1.10;1.10;;;;;;;24.75;64.79;100187.00;4403652;32;32987;-89
2023/08/22 02:07:17;;;;;;;3.53;1.27;;;;;;;24.57;65.45;100188.78;4391532;32;33820;-89
2023/08/22 02:09:45;;;;;;;6.15;1.73;;;;;;;24.73;64.84;100183.56;4399303;32;33784;-90
2023/08/22 02:12:14;;;;;;;2.20;1.75;;;;;;;24.61;64.94;100184.78;4402580;32;34130;-89
2023/08/22 02:14:42;;;;;;;0.95;0.85;;;;;;;24.61;65.04;100186.63;4384167;32;32898;-89
2023/08/22 02:17:10;;;;;;;1.73;1.58;;;;;;;24.51;65.34;100183.97;4392745;32;33558;-89
2023/08/22 02:19:38;;;;;;;3.40;1.25;;;;;;;24.40;65.63;100182.31;4386193;32;33310;-89
2023/08/22 02:22:05;;;;;;;2.90;2.28;;;;;;;24.50;65.36;100187.69;4374680;32;32424;-88
2023/08/22 02:24:33;;;;;;;2.67;1.70;;;;;;;24.60;65.08;100188.50;4385001;32;32111;-88
2023/08/22 02:27:03;;;;;;;2.10;1.23;;;;;;;24.61;64.81;100184.78;4374860;32;33277;-88
2023/08/22 02:29:31;;;;;;;1.60;1.30;;;;;;;24.62;64.67;100191.88;4397831;32;32933;-88
2023/08/22 02:31:59;;;;;;;2.62;2.22;;;;;;;24.60;64.55;100177.69;4383410;32;33501;-88
2023/08/22 02:34:27;;;;;;;1.17;1.08;;;;;;;24.52;64.98;100186.50;4376727;32;32818;-88
2023/08/22 02:36:54;;;;;;;1.90;1.77;;;;;;;24.61;64.40;100179.37;4385386;32;33564;-88
2023/08/22 02:39:23;;;;;;;1.83;1.73;;;;;;;24.70;64.11;100181.19;4385328;32;33879;-88
2023/08/22 02:41:52;;;;;;;2.17;1.75;;;;;;;24.55;64.67;100179.13;4403837;32;34490;-88
2023/08/22 02:44:19;;;;;;;0.73;0.73;;;;;;;24.59;64.54;100184.06;4373557;32;32830;-88
2023/08/22 02:46:47;;;;;;;1.58;1.37;;;;;;;24.53;64.68;100176.56;4373854;32;32718;-88
2023/08/22 02:49:15;;;;;;;1.77;1.67;;;;;;;24.44;65.29;100177.44;4390520;32;33944;-88
2023/08/22 02:51:42;;;;;;;2.10;1.73;;;;;;;24.51;65.09;100178.56;4384106;32;32939;-88
2023/08/22 02:54:10;;;;;;;5.05;2.75;;;;;;;24.55;64.84;100179.97;4377317;32;33503;-88
2023/08/22 02:56:38;;;;;;;2.37;1.37;;;;;;;24.56;64.71;100181.69;4397360;32;32942;-88
2023/08/22 02:59:05;;;;;;;1.52;1.42;;;;;;;24.52;64.66;100182.97;4387165;32;34192;-87
2023/08/22 03:01:34;;;;;;;2.50;2.30;;;;;;;24.51;64.87;100175.87;4386499;32;34232;-87
2023/08/22 03:04:02;;;;;;;1.40;1.30;;;;;;;24.42;65.17;100168.66;4387007;32;32795;-87
2023/08/22 03:06:29;;;;;;;1.42;1.35;;;;;;;24.40;65.13;100184.13;4386273;32;33133;-87
2023/08/22 03:08:57;;;;;;;1.23;1.20;;;;;;;24.35;65.21;100184.53;4390314;32;34618;-87
2023/08/22 03:11:25;;;;;;;1.92;1.73;;;;;;;24.35;65.08;100183.69;4395943;32;34017;-87
2023/08/22 03:13:54;;;;;;;2.22;1.35;;;;;;;24.31;65.31;100187.66;4402281;32;32306;-86
2023/08/22 03:16:22;;;;;;;1.42;1.33;;;;;;;24.33;65.17;100177.59;4384269;32;34278;-87
2023/08/22 03:18:51;;;;;;;3.72;1.87;;;;;;;24.23;65.54;100183.88;4375765;32;32980;-87
2023/08/22 03:21:18;;;;;;;2.35;1.48;;;;;;;24.37;64.99;100187.13;4372625;32;32844;-87
2023/08/22 03:23:46;;;;;;;1.67;1.58;;;;;;;24.32;64.92;100184.84;4403367;32;33468;-87
2023/08/22 03:26:15;;;;;;;2.03;1.77;;;;;;;24.33;64.95;100185.69;4396353;32;34176;-87
2023/08/22 03:28:42;;;;;;;3.70;1.42;;;;;;;24.33;64.98;100185.69;4389848;32;33358;-87
2023/08/22 03:31:10;;;;;;;1.55;1.33;;;;;;;24.35;64.95;100184.53;4391949;32;32960;-88
2023/08/22 03:33:38;;;;;;;2.30;2.10;;;;;;;24.26;65.21;100194.38;4384919;32;33451;-87
2023/08/22 03:36:06;;;;;;;1.37;1.27;;;;;;;24.28;65.36;100195.06;4409896;32;34240;-88
2023/08/22 03:38:34;;;;;;;2.00;1.80;;;;;;;24.30;65.25;100197.63;4373656;32;32913;-87
2023/08/22 03:41:02;;;;;;;3.70;1.58;;;;;;;24.36;64.78;100194.38;4399455;32;34823;-87
2023/08/22 03:43:30;;;;;;;1.05;0.82;;;;;;;24.17;65.54;100191.69;4397837;32;33514;-87
2023/08/22 03:45:59;;;;;;;6.40;2.22;;;;;;;24.07;65.89;100189.03;4397544;32;33708;-87
2023/08/22 03:48:27;;;;;;;1.77;1.02;;;;;;;24.12;65.78;100186.75;4372994;32;32560;-87
2023/08/22 03:50:56;;;;;;;1.20;1.10;;;;;;;24.17;65.69;100184.44;4397671;32;33264;-87
2023/08/22 03:53:24;;;;;;;5.43;1.70;;;;;;;24.20;65.65;100184.16;4385558;32;32657;-87
2023/08/22 03:55:51;;;;;;;6.00;2.20;;;;;;;24.48;64.33;100179.69;4384638;32;33833;-87
2023/08/22 03:58:19;;;;;;;1.62;1.33;;;;;;;24.50;64.08;100180.41;4374154;32;34898;-88
2023/08/22 04:00:47;;;;;;;2.60;2.20;;;;;;;24.38;64.65;100180.75;4391265;32;33956;-89
2023/08/22 04:03:15;;;;;;;1.55;1.45;;;;;;;24.20;65.54;100192.25;4373541;32;32493;-89
2023/08/22 04:05:43;;;;;;;1.67;1.55;;;;;;;24.28;65.26;100192.38;4396549;32;34503;-87
2023/08/22 04:08:11;;;;;;;2.78;1.27;;;;;;;24.16;65.61;100190.81;4401960;32;34460;-88
2023/08/22 04:10:39;;;;;;;2.17;1.85;;;;;;;24.23;65.50;100191.97;4412345;32;32919;-87
2023/08/22 04:13:07;;;;;;;1.58;1.48;;;;;;;24.24;65.45;100199.06;4403172;32;33262;-88
2023/08/22 04:15:37;;;;;;;2.05;1.85;;;;;;;24.23;65.43;100189.25;4390474;32;33981;-87
2023/08/22 04:18:06;;;;;;;2.22;1.62;;;;;;;24.25;65.39;100198.06;4403585;32;33888;-87
2023/08/22 04:20:34;;;;;;;2.97;2.53;;;;;;;24.30;65.37;100196.75;4370785;32;32577;-87
2023/08/22 04:23:02;;;;;;;1.75;1.65;;;;;;;24.18;66.07;100199.63;4386603;32;32306;-87
2023/08/22 04:25:30;;;;;;;2.67;2.47;;;;;;;24.16;66.27;100198.91;4397418;32;33329;-87
2023/08/22 04:27:58;;;;;;;1.98;1.80;;;;;;;24.25;65.98;100194.50;4384850;32;32862;-88
2023/08/22 04:30:26;;;;;;;1.90;1.62;;;;;;;24.20;66.34;100189.53;4378627;32;32674;-88
2023/08/22 04:32:56;;;;;;;2.03;1.92;;;;;;;24.28;66.37;100189.69;4383548;32;32780;-88
2023/08/22 04:35:24;;;;;;;2.40;2.20;;;;;;;24.36;66.29;100193.50;4400634;32;32718;-89
2023/08/22 04:37:52;;;;;;;2.08;1.87;;;;;;;24.49;65.95;100191.34;4390558;32;33911;-89
2023/08/22 04:40:20;;;;;;;2.15;1.90;;;;;;;24.48;66.02;100186.94;4400319;32;34405;-89
2023/08/22 04:42:49;;;;;;;1.40;1.30;;;;;;;24.51;66.00;100195.63;4384791;32;33561;-88
2023/08/22 04:45:17;;;;;;;1.87;1.40;;;;;;;24.57;65.66;100194.16;4383087;32;34164;-88
2023/08/22 04:47:45;;;;;;;1.50;1.40;;;;;;;24.69;65.68;100201.09;4374509;32;33382;-88
2023/08/22 04:50:13;;;;;;;2.20;2.00;;;;;;;24.73;65.69;100190.84;4372573;32;33260;-88
2023/08/22 04:52:41;;;;;;;1.85;1.75;;;;;;;24.91;65.20;100197.16;4410543;32;32133;-90
2023/08/22 04:55:09;;;;;;;3.20;2.95;;;;;;;25.22;63.97;100194.19;4373217;32;32911;-90
2023/08/22 04:57:37;;;;;;;2.00;1.90;;;;;;;25.34;63.64;100200.22;4385490;32;33596;-89
2023/08/22 05:00:08;;;;;;;2.30;1.98;;;;;;;25.35;64.25;100210.03;4402742;32;33784;-90
2023/08/22 05:02:36;;;;;;;1.90;1.80;;;;;;;25.35;64.26;100218.12;4377163;32;33383;-89
2023/08/22 05:05:06;;;;;;;4.50;3.17;;;;;;;25.28;64.33;100224.16;4403793;32;33503;-90
2023/08/22 05:07:34;;;;;;;2.35;2.12;;;;;;;25.19;64.87;100222.34;4404420;32;32991;-87
2023/08/22 05:10:03;;;;;;;2.87;2.08;;;;;;;25.14;65.39;100213.84;4375174;32;33126;-88
2023/08/22 05:12:30;;;;;;;2.25;2.08;;;;;;;25.15;65.67;100220.09;4375863;32;33475;-89
2023/08/22 05:14:58;;;;;;;2.92;1.42;;;;;;;25.28;65.04;100228.72;4397605;32;34118;-88
2023/08/22 05:17:27;;;;;;;2.15;1.55;;;;;;;25.29;64.80;100222.28;4388946;32;32562;-88
2023/08/22 05:19:56;;;;;;;1.98;1.27;;;;;;;25.45;64.01;100219.78;4382399;32;104353;-88
2023/08/22 05:22:24;;;;;;;1.00;1.00;;;;;;;25.53;63.87;100227.97;4404536;32;33676;-88
2023/08/22 05:24:52;;;;;;;1.58;1.48;;;;;;;25.62;63.81;100228.91;4397644;32;33062;-88
2023/08/22 05:27:20;;;;;;;2.05;1.85;;;;;;;26.07;63.14;100222.59;4375016;32;33155;-88
2023/08/22 05:29:47;;;;;;;3.08;2.22;;;;;;;26.27;62.77;100224.13;4368289;32;34269;-88
2023/08/22 05:32:15;;;;;;;2.03;1.42;;;;;;;26.32;62.84;100220.09;4370668;32;31925;-88
2023/08/22 05:34:43;;;;;;;3.45;2.78;;;;;;;26.21;63.23;100227.47;4407176;32;32776;-88
2023/08/22 05:37:12;;;;;;;1.25;1.23;;;;;;;26.26;63.18;100221.56;4393488;32;32993;-88
2023/08/22 05:39:40;;;;;;;1.35;1.23;;;;;;;26.44;62.52;100216.97;4384377;32;33442;-88
2023/08/22 05:42:08;;;;;;;1.77;1.67;;;;;;;26.86;60.34;100216.19;4383189;32;32993;-88
2023/08/22 05:44:35;;;;;;;3.58;2.67;;;;;;;26.93;60.36;100221.84;4369674;32;34053;-88
2023/08/22 05:47:04;;;;;;;3.37;2.55;;;;;;;26.97;59.95;100215.94;4397709;32;32681;-88
2023/08/22 05:49:33;;;;;;;2.92;2.20;;;;;;;27.11;60.35;100219.91;4396321;32;32580;-88
2023/08/22 05:52:02;;;;;;;2.10;1.92;;;;;;;27.08;60.67;100222.94;4383874;32;33477;-88
2023/08/22 05:54:31;;;;;;;2.20;1.65;;;;;;;27.21;60.29;100223.34;4399996;32;32504;-88
2023/08/22 05:56:59;;;;;;;1.70;1.60;;;;;;;27.19;60.28;100225.34;4391126;32;33814;-88
2023/08/22 05:59:28;;;;;;;2.37;1.98;;;;;;;27.46;59.45;100228.84;4400900;32;33603;-87
2023/08/22 06:01:56;;;;;;;1.08;1.00;;;;;;;27.65;59.03;100231.25;4392065;32;33375;-87
2023/08/22 06:04:26;;;;;;;2.70;1.98;;;;;;;27.80;58.71;100229.59;4380629;32;33135;-88
2023/08/22 06:06:54;;;;;;;1.90;1.33;;;;;;;27.94;58.41;100222.66;4377757;32;33172;-88
2023/08/22 06:09:22;;;;;;;3.28;1.45;;;;;;;27.94;58.26;100227.25;4379740;32;33329;-88
2023/08/22 06:11:53;;;;;;;5.00;2.75;;;;;;;28.01;58.47;100233.69;4399710;32;32757;-88
2023/08/22 06:14:24;;;;;;;1.90;1.80;;;;;;;28.21;57.72;100232.34;4386916;32;33080;-89
2023/08/22 06:16:53;;;;;;;2.12;2.03;;;;;;;27.98;56.97;100229.44;4374430;32;33921;-88
2023/08/22 06:19:21;;;;;;;2.58;1.98;;;;;;;28.02;57.13;100228.09;4367983;32;32022;-89
2023/08/22 06:21:49;;;;;;;3.12;2.78;;;;;;;28.21;56.56;100229.63;4390886;32;33382;-90
2023/08/22 06:24:17;;;;;;;2.08;1.55;;;;;;;28.37;55.70;100222.50;4368233;32;33475;-89
2023/08/22 06:26:48;;;;;;;2.62;1.65;;;;;;;28.58;55.11;100222.78;4403257;32;33662;-90
2023/08/22 06:29:18;;;;;;;3.35;2.42;;;;;;;28.64;54.75;100221.28;4378010;32;32712;-89
2023/08/22 06:31:47;;;;;;;1.95;1.77;;;;;;;28.67;54.18;100212.75;4400153;32;33378;-89
2023/08/22 06:34:15;;;;;;;2.35;1.87;;;;;;;28.97;53.60;100216.63;4403460;32;33658;-88
2023/08/22 06:36:44;;;;;;;1.55;1.00;;;;;;;28.92;52.92;100219.84;4402398;32;32660;-88
2023/08/22 06:39:12;;;;;;;2.03;1.92;;;;;;;28.79;54.18;100225.81;4404099;32;33279;-89
2023/08/22 06:41:40;;;;;;;3.33;2.22;;;;;;;29.14;53.72;100228.25;4394687;32;33341;-89
2023/08/22 06:44:09;;;;;;;1.83;1.73;;;;;;;29.31;51.28;100229.88;4365809;32;31041;-89
2023/08/22 06:46:37;;;;;;;2.85;1.73;;;;;;;29.64;51.02;100219.69;4362778;32;32791;-89
2023/08/22 06:49:05;;;;;;;5.40;2.15;;;;;;;29.61;49.65;100230.06;4391286;32;34051;-88
2023/08/22 06:51:33;;;;;;;3.22;2.40;;;;;;;29.43;50.98;100222.16;4400301;32;33315;-88
2023/08/22 06:54:01;;;;;;;3.20;2.90;;;;;;;29.76;50.14;100217.38;4403129;32;33498;-88
2023/08/22 06:56:28;;;;;;;2.92;2.03;;;;;;;29.94;51.19;100217.09;4383355;32;33183;-88
2023/08/22 06:58:56;;;;;;;2.95;2.10;;;;;;;30.22;48.83;100215.50;4383528;32;33522;-89
2023/08/22 07:01:24;;;;;;;2.55;2.35;;;;;;;30.40;49.60;100211.59;4393768;32;32729;-87
2023/08/22 07:03:52;;;;;;;2.97;2.47;;;;;;;30.34;48.88;100207.75;4394373;32;33481;-87
2023/08/22 07:06:40;;;;;;;2.33;2.10;;;;;;;30.48;49.24;100216.94;4392453;32;33582;-87
2023/08/22 07:09:07;;;;;;;1.15;1.05;;;;;;;30.79;48.06;100214.09;4375634;32;34205;-87
2023/08/22 07:11:35;;;;;;;6.22;2.12;;;;;;;30.92;49.24;100214.28;4403909;32;31463;-87
2023/08/22 07:14:03;;;;;;;3.37;2.15;;;;;;;30.68;50.31;100209.94;4370101;32;32761;-87
2023/08/22 07:16:30;;;;;;;2.85;2.15;;;;;;;30.93;49.79;100209.69;4395974;32;33514;-87
2023/08/22 07:18:58;;;;;;;3.83;2.10;;;;;;;31.04;49.71;100211.91;4395606;32;34141;-89
2023/08/22 07:21:26;;;;;;;1.90;1.80;;;;;;;31.32;47.40;100210.19;4380218;32;31991;-89
2023/08/22 07:23:54;;;;;;;1.52;1.42;;;;;;;31.23;48.87;100216.78;4383541;32;33638;-89
2023/08/22 07:26:22;;;;;;;2.33;1.30;;;;;;;30.88;49.58;100212.12;4366208;32;32433;-89
2023/08/22 07:28:51;;;;;;;1.83;1.73;;;;;;;30.99;49.52;100212.47;4403094;32;31962;-89
2023/08/22 07:31:18;;;;;;;2.85;2.62;;;;;;;31.22;48.66;100214.25;4392916;32;31671;-88
2023/08/22 07:33:46;;;;;;;2.87;2.15;;;;;;;31.71;46.13;100210.84;4365773;32;33209;-89
2023/08/22 07:36:18;;;;;;;2.33;2.10;;;;;;;31.59;47.72;100218.72;4398475;32;33929;-88
2023/08/22 07:38:46;;;;;;;2.53;2.35;;;;;;;31.48;48.03;100224.69;4403919;32;32988;-89
2023/08/22 07:41:14;;;;;;;1.40;1.30;;;;;;;31.92;47.35;100210.03;4411115;32;33432;-88
2023/08/22 07:43:42;;;;;;;1.90;1.80;;;;;;;32.06;47.05;100209.97;4374121;32;32722;-89
2023/08/22 07:46:10;;;;;;;2.87;1.75;;;;;;;32.07;47.39;100210.81;4402953;32;33231;-88
2023/08/22 07:48:37;;;;;;;4.07;1.77;;;;;;;32.00;47.57;100212.63;4384804;32;33899;-89
2023/08/22 07:51:05;;;;;;;2.65;2.12;;;;;;;32.28;47.99;100205.28;4387160;32;33052;-89
2023/08/22 07:53:33;;;;;;;3.60;1.83;;;;;;;32.23;46.99;100199.56;4385346;32;33785;-89
2023/08/22 07:56:01;;;;;;;2.58;2.08;;;;;;;32.10;46.90;100202.22;4403865;32;35279;-88
2023/08/22 07:58:32;;;;;;;1.20;1.10;;;;;;;32.24;47.30;100204.03;4396388;32;33501;-89
2023/08/22 08:01:04;;;;;;;2.28;2.08;;;;;;;32.17;47.56;100197.66;4398793;32;32419;-88
2023/08/22 08:03:32;;;;;;;2.33;2.10;;;;;;;32.33;46.61;100196.50;4410580;32;34461;-88
2023/08/22 08:06:00;;;;;;;3.60;2.58;;;;;;;32.67;46.26;100201.19;4402780;32;33252;-88
2023/08/22 08:08:28;;;;;;;2.28;2.08;;;;;;;32.84;46.51;100199.81;4384012;32;33769;-89
2023/08/22 08:10:56;;;;;;;1.65;1.50;;;;;;;32.77;45.79;100204.41;4401459;32;32452;-88
2023/08/22 08:13:24;;;;;;;1.58;1.48;;;;;;;32.54;46.68;100203.84;4389675;32;34608;-89
2023/08/22 08:15:51;;;;;;;4.57;2.80;;;;;;;33.01;44.88;100199.50;4391945;32;32551;-89
2023/08/22 08:18:32;;;;;;;3.37;2.47;;;;;;;33.08;45.09;100205.84;4386943;32;33291;-88
2023/08/22 08:21:00;;;;;;;1.48;1.40;;;;;;;33.36;45.14;100206.59;4402399;32;33631;-89
2023/08/22 08:23:29;;;;;;;2.08;1.87;;;;;;;33.11;45.47;100205.44;4374011;32;32584;-88
2023/08/22 08:25:57;;;;;;;3.75;2.10;;;;;;;33.02;43.84;100207.50;4409191;32;35622;-89
2023/08/22 08:28:25;;;;;;;2.53;1.48;;;;;;;33.14;43.92;100210.53;4378960;32;32309;-89
2023/08/22 08:30:53;;;;;;;2.47;1.98;;;;;;;33.18;44.00;100200.81;4410611;32;32803;-89
2023/08/22 08:33:21;;;;;;;8.93;2.30;;;;;;;33.37;43.28;100207.41;4390887;32;33519;-89
2023/08/22 08:35:49;;;;;;;3.92;3.28;;;;;;;33.49;44.04;100207.72;4386568;32;34043;-88
2023/08/22 08:38:17;;;;;;;4.03;2.47;;;;;;;33.30;43.87;100204.69;4386832;32;34263;-88
2023/08/22 08:40:46;;;;;;;4.53;2.92;;;;;;;33.45;42.14;100203.69;4374494;32;33953;-89
2023/08/22 08:43:13;;;;;;;2.00;1.87;;;;;;;33.72;41.06;100196.41;4402486;32;34592;-88
2023/08/22 08:45:41;;;;;;;4.15;2.67;;;;;;;33.99;40.45;100198.12;4392362;32;34812;-88
2023/08/22 08:48:09;;;;;;;14.95;2.33;;;;;;;34.11;39.80;100198.34;4392753;32;32084;-89
2023/08/22 08:50:38;;;;;;;1.60;1.50;;;;;;;34.45;39.50;100191.78;4387066;32;33376;-89
2023/08/22 08:53:06;;;;;;;1.83;1.37;;;;;;;33.99;38.93;100197.28;4381140;32;33088;-88
2023/08/22 08:55:35;;;;;;;2.12;1.65;;;;;;;34.38;39.58;100197.28;4397770;32;34181;-89
2023/08/22 08:58:03;;;;;;;1.62;1.52;;;;;;;34.43;38.91;100193.06;4387155;32;32114;-88
2023/08/22 09:00:31;;;;;;;2.40;2.17;;;;;;;34.59;38.87;100193.47;4375733;32;33212;-89
2023/08/22 09:02:59;;;;;;;1.92;1.80;;;;;;;34.39;38.77;100187.16;4405076;32;33902;-89
2023/08/22 09:05:30;;;;;;;2.05;1.80;;;;;;;34.55;37.49;100191.38;4392615;32;33986;-89
2023/08/22 09:08:34;;;;;;;3.10;2.30;;;;;;;34.63;38.03;100182.91;4393385;32;34640;-88
2023/08/22 09:11:02;;;;;;;4.40;2.25;;;;;;;34.62;37.62;100176.59;4385280;32;33277;-88
2023/08/22 09:13:30;;;;;;;4.10;1.98;;;;;;;34.72;36.78;100176.16;4376820;32;33958;-88
2023/08/22 09:16:17;;;;;;;6.72;3.10;;;;;;;35.22;36.13;100173.63;4389551;32;33648;-89
2023/08/22 09:18:45;;;;;;;3.62;2.75;;;;;;;35.29;36.09;100166.22;4402059;32;33701;-89
2023/08/22 09:21:14;;;;;;;2.35;1.58;;;;;;;35.46;36.75;100171.22;4387140;32;34168;-89
2023/08/22 09:23:42;;;;;;;2.58;1.23;;;;;;;35.63;35.69;100166.91;4398856;32;33951;-89
2023/08/22 09:26:11;;;;;;;2.17;1.60;;;;;;;35.52;36.09;100170.34;4391957;32;33928;-88
2023/08/22 09:28:39;;;;;;;2.05;1.90;;;;;;;35.70;36.55;100164.09;4374151;32;32473;-89
2023/08/22 09:31:07;;;;;;;2.40;2.20;;;;;;;35.56;35.87;100158.72;4373923;32;32013;-88
2023/08/22 09:33:45;;;;;;;2.42;1.95;;;;;;;35.95;35.48;100156.75;4392406;32;34219;-89
2023/08/22 09:36:20;;;;;;;1.65;1.55;;;;;;;36.29;36.16;100152.63;4386516;32;34832;-88
2023/08/22 09:38:58;;;;;;;2.45;1.83;;;;;;;36.46;34.26;100157.56;4380467;32;32421;-89
2023/08/22 09:41:27;;;;;;;1.27;1.27;;;;;;;36.06;34.14;100149.69;4386359;32;34123;-89
2023/08/22 09:44:03;;;;;;;2.15;1.98;;;;;;;36.07;34.86;100156.84;4399358;32;34459;-89
2023/08/22 09:46:31;;;;;;;1.60;1.50;;;;;;;36.39;34.96;100150.19;4412197;32;32620;-89
2023/08/22 09:49:00;;;;;;;4.70;1.95;;;;;;;35.65;33.98;100145.53;4380070;32;33058;-89
2023/08/22 09:51:30;;;;;;;2.30;2.08;;;;;;;36.76;32.67;100138.41;4403638;32;32877;-89
2023/08/22 09:54:03;;;;;;;1.42;1.33;;;;;;;36.80;33.88;100134.97;4399822;32;33426;-89
2023/08/22 09:56:32;;;;;;;1.65;1.55;;;;;;;36.75;33.50;100129.31;4404717;32;32601;-89
2023/08/22 09:59:01;;;;;;;2.58;2.37;;;;;;;36.67;33.33;100129.59;4405769;32;32063;-88
2023/08/22 10:01:29;;;;;;;11.20;4.18;;;;;;;36.75;33.48;100133.94;4378562;32;32006;-89
2023/08/22 10:03:57;;;;;;;2.83;2.53;;;;;;;37.14;33.06;100130.72;4393477;32;33788;-89
2023/08/22 10:06:30;;;;;;;3.03;2.58;;;;;;;36.84;33.27;100127.94;4379671;32;33784;-89
2023/08/22 10:09:15;;;;;;;1.92;1.77;;;;;;;36.73;32.92;100122.34;4382516;32;33745;-89
2023/08/22 10:11:48;;;;;;;3.67;2.80;;;;;;;36.98;32.28;100131.34;4402411;32;32454;-89
2023/08/22 10:14:25;;;;;;;2.17;2.00;;;;;;;36.86;32.62;100135.94;4396542;32;32825;-89
2023/08/22 10:16:57;;;;;;;1.62;1.48;;;;;;;36.94;33.22;100126.53;4403563;32;33302;-89
2023/08/22 10:19:26;;;;;;;3.55;2.20;;;;;;;37.20;33.21;100123.44;4400490;32;33519;-89
2023/08/22 10:21:53;;;;;;;3.65;2.28;;;;;;;37.19;32.71;100127.28;4390277;32;33729;-89
2023/08/22 10:24:29;;;;;;;3.65;2.90;;;;;;;37.09;33.02;100121.50;4389541;32;33534;-89
2023/08/22 10:27:02;;;;;;;10.77;3.12;;;;;;;37.26;32.55;100121.66;4397338;32;34398;-89
2023/08/22 10:29:37;;;;;;;2.28;1.75;;;;;;;37.33;30.43;100112.25;4381964;32;31852;-89
2023/08/22 10:32:05;;;;;;;5.03;1.58;;;;;;;36.68;32.56;100114.78;4378333;32;32084;-89
2023/08/22 10:34:39;;;;;;;2.10;1.77;;;;;;;36.98;32.73;100116.75;4383727;32;34151;-89
2023/08/22 10:37:22;;;;;;;2.28;2.05;;;;;;;37.08;31.85;100117.91;4383891;32;33353;-89
2023/08/22 10:39:50;;;;;;;2.37;1.65;;;;;;;37.78;31.91;100108.16;4400756;32;32020;-88
2023/08/22 10:42:19;;;;;;;1.77;1.67;;;;;;;37.15;32.10;100104.03;4382963;32;33326;-89
2023/08/22 10:44:54;;;;;;;1.12;1.12;;;;;;;37.49;31.87;100109.91;4393590;32;34037;-89
2023/08/22 10:47:25;;;;;;;1.80;1.67;;;;;;;37.83;30.09;100106.34;4396889;32;33355;-89
2023/08/22 10:49:55;;;;;;;1.58;1.48;;;;;;;37.76;31.04;100104.81;4401690;32;33500;-89
2023/08/22 10:52:43;;;;;;;2.03;1.60;;;;;;;37.86;29.50;100103.16;4390570;32;33007;-88
2023/08/22 10:55:12;;;;;;;1.50;1.40;;;;;;;38.50;29.45;100099.66;4382652;32;34070;-88
2023/08/22 10:57:44;;;;;;;2.03;1.92;;;;;;;38.14;29.96;100096.09;4389201;32;32590;-88
2023/08/22 11:00:19;;;;;;;2.97;1.65;;;;;;;38.52;31.11;100086.50;4394325;32;32016;-89
2023/08/22 11:02:57;;;;;;;2.75;1.35;;;;;;;38.53;29.48;100091.75;4394806;32;32101;-89
2023/08/22 11:05:30;;;;;;;1.50;1.40;;;;;;;38.48;29.84;100088.06;4382653;32;33169;-89
2023/08/22 11:07:58;;;;;;;2.15;1.87;;;;;;;37.90;30.55;100093.34;4389971;32;34270;-89
2023/08/22 11:10:26;;;;;;;2.40;2.30;;;;;;;38.14;30.64;100099.69;4407624;32;32870;-89
2023/08/22 11:12:55;;;;;;;2.67;1.77;;;;;;;37.79;29.93;100088.63;4400039;32;33300;-89
2023/08/22 11:15:23;;;;;;;5.53;1.65;;;;;;;37.91;30.04;100097.78;4401883;32;33395;-89
2023/08/22 11:17:50;;;;;;;2.15;2.05;;;;;;;37.77;29.46;100089.94;4387385;32;32302;-89
2023/08/22 11:20:20;;;;;;;2.30;2.10;;;;;;;38.22;30.30;100086.59;4377812;32;32632;-89
2023/08/22 11:22:48;;;;;;;2.12;2.03;;;;;;;38.57;27.49;100086.59;4376709;32;31856;-89
2023/08/22 11:25:26;;;;;;;3.72;2.20;;;;;;;38.34;29.91;100079.19;4407496;32;33578;-89
2023/08/22 11:27:54;;;;;;;10.88;2.47;;;;;;;38.22;28.87;100089.38;4378347;32;31658;-89
2023/08/22 11:30:22;;;;;;;2.28;1.90;;;;;;;37.89;28.84;100088.91;4401976;32;34683;-89
2023/08/22 11:32:50;;;;;;;1.75;1.65;;;;;;;38.10;28.04;100078.38;4383586;32;32334;-89
2023/08/22 11:35:18;;;;;;;2.33;2.12;;;;;;;38.41;28.46;100072.50;4368901;32;32305;-89